Nearby METAR Reports

 

KIAG - Niagara Falls, New York, USA
Distance from station: W 13mi, 20km
Updated: Tue, 01-Dec-2020 9:16pm EST
Light snow, Mist, Overcast
Light snow, Mist, Overcast
 Wind from W
Wind: W 17 mph , 28 km/h
Temperature: 30°F , -1°C
Wind Chill: 18°F , -8°C
Dew Point: 28°F , -2°C
Humidity: 93%
Barometer: 29.59 inHg , 1002 hPa
Summary: Light snow, Mist
Clouds: Overcast
Visibility: 4 miles , 6 km
Cloud details: Mostly cloudy 1400 ft
Overcast 1900 ft
2020/12/02 02:16 KIAG 020216Z 26015KT 4SM -SN BR BKN014 OVC019 M01/M02 A2959 RMK AO2 UPE0156SNB0156 P0000 T10061022
KBUF - Buffalo/Cheektow, New York, USA
Distance from station: S 15mi, 24km
Updated: Tue, 01-Dec-2020 8:54pm EST
Overcast
Overcast
 Wind from W
Wind: W 20 mph , 31 km/h, Gust: 25 mph , 41 km/h
Temperature: 32°F , 0°C
Wind Chill: 20°F , -7°C
Dew Point: 27°F , -3°C
Humidity: 80%
Barometer: 29.59 inHg , 1002 hPa
Clouds: Overcast
Visibility: 10 miles , 16 km
Cloud details: Few Clouds 1100 ft
Overcast 1500 ft
2020/12/02 01:54 KBUF 020154Z 26017G22KT 10SM FEW011 OVC015 00/M03 A2959 RMK AO2 SNE14 SLP028 P0000 T00001028
 
CYSN - St. Catharines A, Ontario, Canada
Distance from station: W 24mi, 39km
Updated: Tue, 01-Dec-2020 9:00pm EST
Light snow, Overcast
Light snow, Overcast
 Wind from WNW
Wind: WNW 15 mph , 24 km/h
Temperature: 34°F , 1°C
Wind Chill: 24°F , -4°C
Dew Point: 28°F , -2°C
Humidity: 81%
Barometer: 29.60 inHg , 1002.4 hPa
Summary: Light Snow
Clouds: Overcast
Visibility: 3 miles , 5 km
Cloud details: Overcast 2000 ft
2020/12/02 02:00 CYSN 020200Z 29013KT 3SM -SN OVC020 01/M02 A2960 RMK SC8 LAST STFD OBS/NEXT 021200Z SLP029
CWWZ - Port Weller (mar, Ontario, Canada
Distance from station: WNW 28mi, 44km
Updated: Tue, 01-Dec-2020 9:00pm EST

 Wind from N
Wind: N 35 mph , 56 km/h
Temperature: 36°F , 2°C
Wind Chill: 22°F , -6°C
Dew Point: 32°F , 0°C
Humidity: 87%
2020/12/02 02:00 CWWZ 020200Z AUTO 00030KT 02/M00 RMK AO1 SOG 01 1018 SLP031 T00181003
 
CWPC - Port Colborne(Au, Ontario, Canada
Distance from station: SW 35mi, 56km
Updated: Tue, 01-Dec-2020 9:00pm EST

 Wind from WNW
Wind: WNW 23 mph , 37 km/h
Temperature: 32°F , 0°C
Wind Chill: 19°F , -7°C
Dew Point: 27°F , -3°C
Humidity: 80%
2020/12/02 02:00 CWPC 020200Z AUTO 29020KT M00/M03 RMK AO1 PK WND 29027/0119 SLP044 T10041032 51020
CXVN - Vineland (au8), Ontario, Canada
Distance from station: W 36mi, 58km
Updated: Tue, 01-Dec-2020 9:00pm EST

 Wind from WNW
Wind: WNW 14 mph , 22 km/h, Gust: 21 mph , 33 km/h
Temperature: 32°F , 0°C
Wind Chill: 22°F , -6°C
Dew Point: 28°F , -2°C
Humidity: 87%
2020/12/02 02:00 CXVN 020200Z AUTO 29012G18KT M00/M02 RMK AO1 SOG 05 1018 PK WND 29019/0140 SLP037 T10041020
 
CYTZ - Toronto Il Vor, Ontario, Canada
Distance from station: NW 49mi, 79km
Updated: Tue, 01-Dec-2020 9:34pm EST
Light snow, Overcast
Light snow, Overcast
 Wind from WNW
Wind: WNW 10 mph , 17 km/h, Gust: 18 mph , 30 km/h
Temperature: 30°F , -1°C
Wind Chill: 21°F , -6°C
Dew Point: 27°F , -3°C
Humidity: 86%
Barometer: 29.62 inHg , 1003 hPa
Summary: Light Snow
Clouds: Overcast
Visibility: 1 1/4 miles , 2 km
Cloud details: Few Clouds 1600 ft
Overcast 2400 ft
2020/12/02 02:34 CYTZ 020234Z AUTO 30009G16KT 1 1/4SM -SN FEW016 OVC024 M01/M03 A2962 RMK SLP036
KROC - Rochester, New York, USA
Distance from station: E 51mi, 81km
Updated: Tue, 01-Dec-2020 9:25pm EST
Light snow, Overcast
Light snow, Overcast
 Wind from W
Wind: W 12 mph , 19 km/h
Temperature: 32°F , 0°C
Wind Chill: 23°F , -5°C
Dew Point: 28°F , -2°C
Humidity: 87%
Barometer: 29.58 inHg , 1001.7 hPa
Summary: Light Snow
Clouds: Overcast
Visibility: 9 miles , 14 km
Cloud details: Overcast 1500 ft
2020/12/02 02:25 KROC 020225Z 26010KT 9SM -SN OVC015 00/M02 A2958 RMK AO2 P0000 T00001017
 
CXTO - Toronto City, Ontario, Canada
Distance from station: NW 51mi, 82km
Updated: Tue, 01-Dec-2020 9:00pm EST

 
Temperature: 34°F , 1°C
Dew Point: 25°F , -4°C
Humidity: 70%
2020/12/02 02:00 CXTO 020200Z AUTO 01/M04 RMK AO1 SLP028 T00051037 51018
CYOO - Oshawa, Ontario, Canada
Distance from station: NNW 54mi, 87km
Updated: Tue, 01-Dec-2020 9:39pm EST
Light snow, Overcast
Light snow, Overcast
 Wind from NW
Wind: NW 13 mph , 20 km/h
Temperature: 30°F , -1°C
Wind Chill: 20°F , -7°C
Dew Point: 28°F , -2°C
Humidity: 93%
Barometer: 29.56 inHg , 1001 hPa
Summary: Light Snow
Clouds: Overcast
Visibility: 5 miles , 8 km
Cloud details: Mostly cloudy 1600 ft
Overcast 3300 ft
2020/12/02 02:39 CYOO 020239Z AUTO 31011KT 5SM -SN BKN016 OVC033 M01/M02 A2956 RMK SLP018
 
KDKK - Dunkirk, New York, USA
Distance from station: SW 54mi, 87km
Updated: Tue, 01-Dec-2020 9:44pm EST
Light snow, Overcast
Light snow, Overcast
 Wind from W
Wind: W 13 mph , 20 km/h, Gust: 29 mph , 46 km/h
Temperature: 34°F , 1°C
Wind Chill: 25°F , -4°C
Dew Point: 28°F , -2°C
Humidity: 81%
Barometer: 29.67 inHg , 1004.7 hPa
Summary: Light Snow
Clouds: Overcast
Visibility: 1 3/4 miles , 2.8 km
Cloud details: Few Clouds 1700 ft
Mostly cloudy 2200 ft
Overcast 3100 ft
2020/12/02 02:44 KDKK 020244Z AUTO 28011G25KT 1 3/4SM -SN FEW017 BKN022 OVC031 01/M02 A2967 RMK AO2 UPB0159E02SNB02 P0001 T00111017
CWWB - Burlington Piers, Ontario, Canada
Distance from station: W 56mi, 91km
Updated: Tue, 01-Dec-2020 9:00pm EST

 Wind from W
Wind: W 7 mph , 11 km/h
Temperature: 32°F , 0°C
Wind Chill: 25°F , -4°C
Dew Point: 30°F , -1°C
Humidity: 93%
2020/12/02 02:00 CWWB 020200Z AUTO 26006KT M00/M01 RMK AO1 SLP041 T10011014 51021
 
CYYZ - Toronto/Pearson, Ontario, Canada
Distance from station: NW 59mi, 95km
Updated: Tue, 01-Dec-2020 9:42pm EST
Light snow, Low drifting, Snow, Overcast
Light snow, Low drifting, Snow, Overcast
 Wind from NNW
Wind: NNW 17 mph , 28 km/h, Gust: 28 mph , 44 km/h
Temperature: 28°F , -2°C
Wind Chill: 16°F , -9°C
Dew Point: 27°F , -3°C
Humidity: 93%
Barometer: 29.62 inHg , 1003 hPa
Summary: Light snow, Low drifting, Snow
Clouds: Overcast
Visibility: 1/2 mile , 0.8 km
Cloud details: Overcast 500 ft
2020/12/02 02:42 CYYZ 020242Z 33015G24KT 1/2SM R33L/3000VP6000FT/D R33R/6000FT/D R06L/3500VP6000FT/D -SN DRSN VV005 M02/M03 A2962 RMK SN8 SLP038
CWNC - Cobourg (mars), Ontario, Canada
Distance from station: NNE 61mi, 98km
Updated: Tue, 01-Dec-2020 9:00pm EST

 Wind from NW
Wind: NW 8 mph , 13 km/h
Temperature: 34°F , 1°C
Wind Chill: 27°F , -3°C
Dew Point: 30°F , -1°C
Humidity: 87%
2020/12/02 02:00 CWNC 020200Z AUTO 32007KT 01/M01 RMK AO1 SOG 01 3014 SLP002 T00061013
 
CXHM - Hamilton Rbg Cs, Ontario, Canada
Distance from station: W 62mi, 100km
Updated: Tue, 01-Dec-2020 9:00pm EST

 Wind from W
Wind: W 5 mph , 7 km/h
Temperature: 30°F , -1°C
Wind Chill: 25°F , -4°C
Dew Point: 28°F , -2°C
Humidity: 93%
2020/12/02 02:00 CXHM 020200Z AUTO 27004KT M01/M02 RMK AO1 SLP045 T10061017 51020
CYHM - Hamilton Airport, Ontario, Canada
Distance from station: W 63mi, 101km
Updated: Tue, 01-Dec-2020 9:00pm EST
Light snow, Overcast
Light snow, Overcast
 Wind from W
Wind: W 12 mph , 19 km/h
Temperature: 28°F , -2°C
Wind Chill: 18°F , -8°C
Dew Point: 28°F , -2°C
Humidity: 100%
Barometer: 29.63 inHg , 1003.4 hPa
Summary: Light Snow
Clouds: Overcast
Visibility: 1 1/4 miles , 2 km
Cloud details: Overcast 600 ft
2020/12/02 02:00 CYHM 020200Z 27010KT 1 1/4SM -SN OVC006 M02/M02 A2963 RMK SN5CF3 SLP046
 
KDSV - Dansville, New York, USA
Distance from station: SE 63mi, 102km
Updated: Tue, 01-Dec-2020 9:11pm EST
Light snow, Overcast
Light snow, Overcast
 Wind from WNW
Wind: WNW 3 mph , 6 km/h
Temperature: 34°F , 1°C
Dew Point: 28°F , -2°C
Humidity: 81%
Barometer: 29.59 inHg , 1002 hPa
Summary: Light Snow
Clouds: Overcast
Visibility: 8 miles , 13 km
Cloud details: Mostly cloudy 2600 ft
Overcast 3300 ft
2020/12/02 02:11 KDSV 020211Z AUTO 29003KT 8SM -SN BKN026 OVC033 01/M02 A2959 RMK AO2 P0001 T00111022
KOLE - Olean, New York, USA
Distance from station: SSE 65mi, 105km
Updated: Tue, 01-Dec-2020 9:35pm EST
Light snow, Overcast
Light snow, Overcast
 Wind from W
Wind: W 8 mph , 13 km/h, Gust: 18 mph , 30 km/h
Temperature: 27°F , -3°C
Wind Chill: 19°F , -7°C
Dew Point: 27°F , -3°C
Humidity: 100%
Barometer: 29.58 inHg , 1001.7 hPa
Summary: Light Snow
Clouds: Overcast
Visibility: 7 miles , 11 km
Cloud details: Overcast 1300 ft
2020/12/02 02:35 KOLE 020235Z AUTO 26007G16KT 7SM -SN OVC013 M03/M03 A2958 RMK AO2